Time;durP1;ratioP1;P1;durP2;ratioP2;P2;SDS_P1;SDS_P2;PMS_P1;PMS_P2;Temp;Humidity;BMP_temperature;BMP_pressure;BME280_temperature;BME280_humidity;BME280_pressure;Samples;Min_cycle;Max_cycle;Signal;HPM_P1;HPM_P2
2021/04/04 00:01:22;;;;;;;15.00;5.55;;;6.70;66.80;;;;;;5103984;28;27348;-59
2021/04/04 00:04:06;;;;;;;9.20;4.65;;;6.60;66.60;;;;;;5106543;27;27478;-59
2021/04/04 00:06:51;;;;;;;9.95;5.25;;;6.60;66.60;;;;;;5107423;28;27477;-59
2021/04/04 00:09:35;;;;;;;13.07;4.97;;;6.60;66.80;;;;;;5107609;28;27819;-59
2021/04/04 00:12:20;;;;;;;9.13;5.43;;;6.50;66.90;;;;;;5107780;28;27346;-59
2021/04/04 00:15:06;;;;;;;9.68;5.40;;;6.50;67.30;;;;;;5089217;28;27329;-59
2021/04/04 00:17:51;;;;;;;7.80;4.75;;;6.50;67.00;;;;;;5107081;28;28018;-59
2021/04/04 00:20:35;;;;;;;7.72;4.55;;;6.50;67.10;;;;;;5091702;28;27411;-59
2021/04/04 00:23:19;;;;;;;11.20;4.35;;;6.50;67.20;;;;;;5107307;28;27360;-59
2021/04/04 00:26:04;;;;;;;13.90;4.63;;;6.40;66.90;;;;;;5089029;28;27306;-59
2021/04/04 00:28:48;;;;;;;8.40;4.55;;;6.40;67.20;;;;;;5092176;28;27395;-59
2021/04/04 00:31:34;;;;;;;10.05;4.45;;;6.40;67.00;;;;;;5107064;28;27395;-59
2021/04/04 00:34:19;;;;;;;16.25;4.72;;;6.40;67.20;;;;;;5107141;28;27379;-59
2021/04/04 00:37:03;;;;;;;11.75;4.50;;;6.40;66.90;;;;;;5107260;28;27379;-59
2021/04/04 00:39:48;;;;;;;7.00;4.20;;;6.30;67.30;;;;;;5088890;28;27868;-59
2021/04/04 00:42:32;;;;;;;8.90;4.55;;;6.30;67.10;;;;;;5074115;28;27406;-59
2021/04/04 00:45:24;;;;;;;6.85;3.90;;;6.30;67.10;;;;;;5106550;28;27343;-59
2021/04/04 00:48:09;;;;;;;9.27;4.03;;;6.30;66.90;;;;;;5106692;28;27415;-59
2021/04/04 00:50:54;;;;;;;8.73;3.72;;;6.20;67.10;;;;;;5107019;28;27509;-59
2021/04/04 00:53:40;;;;;;;14.20;4.80;;;6.20;67.10;;;;;;5088422;28;27440;-59
2021/04/04 00:56:25;;;;;;;13.10;3.55;;;6.20;67.10;;;;;;5107049;28;27416;-59
2021/04/04 00:59:10;;;;;;;11.45;4.32;;;6.20;66.90;;;;;;5073638;28;27498;-59
2021/04/04 01:01:54;;;;;;;14.13;4.40;;;6.10;66.80;;;;;;5074307;28;27485;-59
2021/04/04 01:04:40;;;;;;;9.43;4.28;;;6.10;67.10;;;;;;5088374;28;27488;-59
2021/04/04 01:07:25;;;;;;;8.10;4.07;;;6.10;67.30;;;;;;5106805;28;27460;-59
2021/04/04 01:10:10;;;;;;;10.02;4.07;;;6.00;67.10;;;;;;5106428;28;27415;-59
2021/04/04 01:13:01;;;;;;;11.48;3.90;;;6.00;67.00;;;;;;5106213;28;27474;-59
2021/04/04 01:15:47;;;;;;;11.02;4.00;;;6.00;67.10;;;;;;5106261;27;27428;-59
2021/04/04 01:18:38;;;;;;;9.13;4.05;;;6.00;67.20;;;;;;5106165;28;27435;-59
2021/04/04 01:21:44;;;;;;;7.35;4.13;;;5.90;67.40;;;;;;5088239;28;27329;-59
2021/04/04 01:24:49;;;;;;;9.15;3.90;;;5.90;67.10;;;;;;5106268;28;27336;-59
2021/04/04 01:28:12;;;;;;;6.75;3.50;;;5.80;67.10;;;;;;5106126;28;27411;-59
2021/04/04 01:30:57;;;;;;;7.70;3.85;;;5.80;67.40;;;;;;5004100;28;27431;-59
2021/04/04 01:33:41;;;;;;;8.23;4.38;;;5.80;67.30;;;;;;4973579;28;27415;-59
2021/04/04 01:36:26;;;;;;;6.70;3.85;;;5.80;67.20;;;;;;5004196;28;27396;-59
2021/04/04 01:39:11;;;;;;;6.00;3.72;;;5.70;67.60;;;;;;5003646;28;27394;-59
2021/04/04 01:41:56;;;;;;;6.70;3.70;;;5.70;67.40;;;;;;4976138;28;27594;-60
2021/04/04 01:44:45;;;;;;;6.45;4.10;;;5.70;67.40;;;;;;4987979;28;27413;-59
2021/04/04 01:47:29;;;;;;;6.95;4.35;;;5.70;67.60;;;;;;4987288;28;27881;-59
2021/04/04 01:50:14;;;;;;;9.98;5.13;;;5.70;67.70;;;;;;4990029;28;27375;-59
2021/04/04 01:52:59;;;;;;;11.27;3.97;;;5.60;67.60;;;;;;5003858;28;27374;-59
2021/04/04 01:55:43;;;;;;;6.70;4.15;;;5.60;67.60;;;;;;4990120;28;27349;-59
2021/04/04 01:58:30;;;;;;;6.20;4.30;;;5.60;67.50;;;;;;5001923;28;27507;-59
2021/04/04 02:01:14;;;;;;;6.07;3.97;;;5.60;67.30;;;;;;4976411;28;27603;-59
2021/04/04 02:04:00;;;;;;;9.55;4.13;;;5.60;67.70;;;;;;5030239;28;27418;-59
2021/04/04 02:06:45;;;;;;;7.25;3.80;;;5.50;67.30;;;;;;5105208;28;27327;-59
2021/04/04 02:09:30;;;;;;;7.82;4.63;;;5.60;67.50;;;;;;5105806;28;27812;-59
2021/04/04 02:12:15;;;;;;;8.30;4.53;;;5.50;67.60;;;;;;5073099;28;27333;-59
2021/04/04 02:15:00;;;;;;;8.18;4.10;;;5.50;67.10;;;;;;5090407;28;27352;-59
2021/04/04 02:17:47;;;;;;;7.55;4.35;;;5.50;67.30;;;;;;5086887;28;26982;-59
2021/04/04 02:20:31;;;;;;;5.82;3.72;;;5.50;67.20;;;;;;5090787;28;27482;-59
2021/04/04 02:23:16;;;;;;;7.32;4.72;;;5.50;67.10;;;;;;5090565;28;27388;-59
2021/04/04 02:26:00;;;;;;;8.32;4.20;;;5.50;66.70;;;;;;5089810;28;27340;-59
2021/04/04 02:28:44;;;;;;;7.63;3.90;;;5.50;67.30;;;;;;5072489;28;26884;-59
2021/04/04 02:31:32;;;;;;;5.53;3.97;;;5.40;66.70;;;;;;5105555;28;27393;-59
2021/04/04 02:34:21;;;;;;;6.35;3.88;;;5.40;67.30;;;;;;5104662;28;27496;-59
2021/04/04 02:37:06;;;;;;;7.72;3.72;;;5.40;67.40;;;;;;5087686;28;27479;-59
2021/04/04 02:40:01;;;;;;;7.70;4.00;;;5.30;67.10;;;;;;5105271;28;27399;-59
2021/04/04 02:42:46;;;;;;;6.35;4.43;;;5.30;66.90;;;;;;5090472;28;27438;-59
2021/04/04 02:45:30;;;;;;;9.35;4.35;;;5.30;66.80;;;;;;5089415;28;27428;-59
2021/04/04 02:48:16;;;;;;;7.30;4.07;;;5.30;67.00;;;;;;5105018;28;27412;-59
2021/04/04 02:51:04;;;;;;;6.43;3.80;;;5.30;67.40;;;;;;5090049;28;27333;-59
2021/04/04 02:53:50;;;;;;;6.50;3.70;;;5.30;67.30;;;;;;5101592;28;27344;-60
2021/04/04 02:56:36;;;;;;;9.40;4.25;;;5.20;67.30;;;;;;5104817;28;27406;-59
2021/04/04 02:59:23;;;;;;;6.60;3.92;;;5.20;67.10;;;;;;5089753;28;27424;-59
2021/04/04 03:02:07;;;;;;;9.70;4.70;;;5.20;67.20;;;;;;5089300;28;27405;-59
2021/04/04 03:04:52;;;;;;;6.22;4.07;;;5.20;67.50;;;;;;5075359;28;27968;-59
2021/04/04 03:07:39;;;;;;;6.30;3.97;;;5.10;67.80;;;;;;5101993;28;27419;-59
2021/04/04 03:10:24;;;;;;;6.07;3.70;;;5.10;68.00;;;;;;5090316;28;27490;-59
2021/04/04 03:13:09;;;;;;;6.20;3.80;;;5.10;67.90;;;;;;5089632;28;27617;-59
2021/04/04 03:15:53;;;;;;;10.40;4.22;;;5.00;67.60;;;;;;5104854;28;27587;-59
2021/04/04 03:18:38;;;;;;;6.30;4.32;;;5.10;67.90;;;;;;5075188;28;27432;-59
2021/04/04 03:21:22;;;;;;;7.20;4.35;;;5.00;67.90;;;;;;5089691;28;27478;-59
2021/04/04 03:24:08;;;;;;;5.40;3.70;;;5.00;68.00;;;;;;5075243;28;27475;-59
2021/04/04 03:26:53;;;;;;;7.43;4.10;;;4.90;68.10;;;;;;5089218;28;27861;-59
2021/04/04 03:29:38;;;;;;;4.90;3.47;;;4.90;68.00;;;;;;5088651;28;27499;-59
2021/04/04 03:32:23;;;;;;;5.75;3.78;;;4.90;67.90;;;;;;5075429;28;27435;-59
2021/04/04 03:35:08;;;;;;;8.60;4.20;;;4.90;68.00;;;;;;5089279;28;27479;-59
2021/04/04 03:37:53;;;;;;;6.60;3.80;;;4.80;68.10;;;;;;5072154;28;27469;-59
2021/04/04 03:40:37;;;;;;;5.47;3.17;;;4.80;68.10;;;;;;5092687;28;27412;-59
2021/04/04 03:43:26;;;;;;;6.55;3.70;;;4.80;67.80;;;;;;5108213;28;27433;-59
2021/04/04 03:46:12;;;;;;;6.50;3.67;;;4.80;68.10;;;;;;5085711;28;27427;-59
2021/04/04 03:48:56;;;;;;;6.10;3.67;;;4.80;67.80;;;;;;5087314;28;27377;-59
2021/04/04 03:51:40;;;;;;;5.63;3.70;;;4.80;68.00;;;;;;5087513;28;27466;-59
2021/04/04 03:54:25;;;;;;;6.35;3.55;;;4.70;68.00;;;;;;5072596;28;27427;-59
2021/04/04 03:57:10;;;;;;;6.10;3.67;;;4.70;67.80;;;;;;5087125;28;27419;-59
2021/04/04 03:59:54;;;;;;;8.00;3.92;;;4.60;67.90;;;;;;5086476;28;27497;-59
2021/04/04 04:02:41;;;;;;;5.65;3.40;;;4.60;67.80;;;;;;5086601;28;27498;-59
2021/04/04 04:05:28;;;;;;;9.07;4.63;;;4.60;67.90;;;;;;5083577;28;27400;-59
2021/04/04 04:08:14;;;;;;;10.35;3.83;;;4.60;68.10;;;;;;5086382;28;27381;-59
2021/04/04 04:10:58;;;;;;;11.13;3.75;;;4.60;68.00;;;;;;5087034;28;27968;-59
2021/04/04 04:13:43;;;;;;;5.80;3.63;;;4.60;68.00;;;;;;5086298;28;27409;-59
2021/04/04 04:16:28;;;;;;;7.50;3.55;;;4.50;68.20;;;;;;5086547;28;27379;-59
2021/04/04 04:19:12;;;;;;;5.75;3.80;;;4.50;68.20;;;;;;5082663;28;27349;-59
2021/04/04 04:21:57;;;;;;;8.38;3.58;;;4.50;68.10;;;;;;5087000;28;27386;-59
2021/04/04 04:24:41;;;;;;;8.57;3.90;;;4.40;68.30;;;;;;5085836;28;27587;-59
2021/04/04 04:27:25;;;;;;;6.30;3.70;;;4.40;68.30;;;;;;5072225;28;27497;-60
2021/04/04 04:30:10;;;;;;;7.25;4.13;;;4.40;67.90;;;;;;5086996;28;27464;-59
2021/04/04 04:32:59;;;;;;;5.88;3.88;;;4.40;68.00;;;;;;5087027;28;27421;-59
2021/04/04 04:35:44;;;;;;;7.30;4.18;;;4.40;68.40;;;;;;5086702;28;27422;-59
2021/04/04 04:38:29;;;;;;;8.70;4.03;;;4.40;67.90;;;;;;5071507;28;27374;-59
2021/04/04 04:41:13;;;;;;;6.30;4.55;;;4.40;68.90;;;;;;5083415;28;27348;-59
2021/04/04 04:44:00;;;;;;;7.97;4.50;;;4.40;68.00;;;;;;5086700;28;27443;-59
2021/04/04 04:46:45;;;;;;;6.03;3.75;;;4.30;67.80;;;;;;5099133;28;27632;-59
2021/04/04 04:49:30;;;;;;;7.40;4.35;;;4.30;67.80;;;;;;5091238;28;27419;-59
2021/04/04 04:52:14;;;;;;;11.48;5.35;;;4.30;68.10;;;;;;5091598;28;27393;-59
2021/04/04 04:54:59;;;;;;;10.05;4.30;;;4.30;68.10;;;;;;5091423;28;27418;-59
2021/04/04 04:57:43;;;;;;;7.22;4.78;;;4.30;68.20;;;;;;5092010;28;27391;-59
2021/04/04 05:00:28;;;;;;;8.73;4.60;;;4.30;68.20;;;;;;5091813;28;27425;-59
2021/04/04 05:03:12;;;;;;;10.90;4.72;;;4.20;68.00;;;;;;5091549;28;27337;-59
2021/04/04 05:06:06;;;;;;;9.75;4.65;;;4.20;68.10;;;;;;5091262;28;27965;-59
2021/04/04 05:08:51;;;;;;;10.88;5.63;;;4.20;68.00;;;;;;5106350;28;27355;-59
2021/04/04 05:11:40;;;;;;;7.50;4.75;;;4.20;68.10;;;;;;5077250;28;27433;-59
2021/04/04 05:14:25;;;;;;;9.50;5.28;;;4.20;68.00;;;;;;5103702;28;27410;-59
2021/04/04 05:17:09;;;;;;;9.10;4.57;;;4.20;68.10;;;;;;5091639;28;27484;-59
2021/04/04 05:19:55;;;;;;;11.40;5.63;;;4.20;68.40;;;;;;5091152;28;27359;-59
2021/04/04 05:22:40;;;;;;;8.10;5.25;;;4.20;68.40;;;;;;5106526;28;26911;-59
2021/04/04 05:25:25;;;;;;;7.70;5.40;;;4.20;68.40;;;;;;5106439;28;27326;-59
2021/04/04 05:28:09;;;;;;;8.93;5.38;;;4.20;68.30;;;;;;5077201;28;27903;-60
2021/04/04 05:31:00;;;;;;;9.32;5.40;;;4.20;68.60;;;;;;5106287;28;27531;-59
2021/04/04 05:33:44;;;;;;;7.93;5.45;;;4.20;68.80;;;;;;5074294;28;27411;-59
2021/04/04 05:36:28;;;;;;;10.50;5.43;;;4.20;69.00;;;;;;5091254;28;27429;-59
2021/04/04 05:39:14;;;;;;;10.77;5.28;;;4.20;69.00;;;;;;5105789;28;27470;-59
2021/04/04 05:42:07;;;;;;;7.53;4.80;;;4.10;69.10;;;;;;5073664;28;27534;-59
2021/04/04 05:44:56;;;;;;;9.27;4.65;;;4.10;69.00;;;;;;5106094;28;27436;-59
2021/04/04 05:47:53;;;;;;;8.63;5.07;;;4.10;69.00;;;;;;5089889;28;27487;-59
2021/04/04 05:51:18;;;;;;;12.30;4.57;;;4.10;68.80;;;;;;5092039;28;27329;-59
2021/04/04 05:54:21;;;;;;;8.52;5.60;;;4.10;68.80;;;;;;5087504;28;27419;-59
2021/04/04 05:57:18;;;;;;;7.50;5.40;;;4.10;69.10;;;;;;5105980;28;27438;-59
2021/04/04 06:00:07;;;;;;;9.88;6.88;;;4.20;69.20;;;;;;5102630;27;27319;-59
2021/04/04 06:03:12;;;;;;;8.23;6.53;;;4.20;69.00;;;;;;5105877;28;27340;-59
2021/04/04 06:06:33;;;;;;;13.88;6.07;;;4.20;69.40;;;;;;5105902;28;27394;-59
2021/04/04 06:09:26;;;;;;;5.55;4.68;;;4.20;69.50;;;;;;5105638;28;27379;-59
2021/04/04 06:12:48;;;;;;;10.52;6.18;;;4.20;69.60;;;;;;5105845;28;27467;-59
2021/04/04 06:16:10;;;;;;;12.60;5.60;;;4.30;69.60;;;;;;5104995;28;27518;-59
2021/04/04 06:19:09;;;;;;;8.00;4.97;;;4.40;69.70;;;;;;5105563;28;27437;-59
2021/04/04 06:22:16;;;;;;;10.85;5.38;;;4.40;70.00;;;;;;5105838;28;27465;-59
2021/04/04 06:25:18;;;;;;;8.57;5.35;;;4.50;69.80;;;;;;5077488;28;27479;-60
2021/04/04 06:28:09;;;;;;;10.82;5.25;;;4.60;70.10;;;;;;5090516;28;27455;-59
2021/04/04 06:30:53;;;;;;;8.07;5.28;;;4.70;69.70;;;;;;5105619;28;27347;-59
2021/04/04 06:33:41;;;;;;;9.60;5.78;;;4.80;69.80;;;;;;5102402;28;27379;-59
2021/04/04 06:37:03;;;;;;;10.27;5.72;;;4.90;69.60;;;;;;5075977;28;27372;-59
2021/04/04 06:40:07;;;;;;;8.73;5.82;;;4.90;69.50;;;;;;5105203;28;27868;-59
2021/04/04 06:43:12;;;;;;;9.00;6.05;;;5.00;69.70;;;;;;5105075;28;27325;-59
2021/04/04 06:46:11;;;;;;;9.13;6.03;;;5.10;69.70;;;;;;5104286;28;27331;-59
2021/04/04 06:49:33;;;;;;;13.85;7.82;;;5.20;69.90;;;;;;5104987;28;27427;-59
2021/04/04 06:52:49;;;;;;;11.98;6.50;;;5.30;70.00;;;;;;5104373;28;27655;-59
2021/04/04 06:56:06;;;;;;;12.55;7.88;;;5.40;70.50;;;;;;5093016;28;27396;-59
2021/04/04 06:59:17;;;;;;;14.10;9.10;;;5.50;70.40;;;;;;5104751;28;27390;-59
2021/04/04 07:02:04;;;;;;;20.88;8.95;;;5.70;69.90;;;;;;5104885;28;27381;-59
2021/04/04 07:04:56;;;;;;;18.33;9.38;;;6.00;67.10;;;;;;5105140;28;27375;-59
2021/04/04 07:07:47;;;;;;;30.35;14.32;;;6.30;66.60;;;;;;5089991;28;27395;-59
2021/04/04 07:10:46;;;;;;;15.73;10.10;;;6.60;66.50;;;;;;5103944;28;27491;-59
2021/04/04 07:14:06;;;;;;;17.75;7.78;;;7.00;66.60;;;;;;5104926;28;27491;-59
2021/04/04 07:17:22;;;;;;;11.43;6.43;;;7.40;66.50;;;;;;5089469;28;27349;-59
2021/04/04 07:20:42;;;;;;;10.82;6.05;;;7.80;65.40;;;;;;5104579;28;27423;-59
2021/04/04 07:23:39;;;;;;;12.52;5.60;;;8.20;63.50;;;;;;5104674;28;27398;-59
2021/04/04 07:26:46;;;;;;;11.10;5.93;;;8.60;62.50;;;;;;5104933;28;27348;-59
2021/04/04 07:29:57;;;;;;;10.95;5.88;;;8.90;62.00;;;;;;5104546;28;27394;-59
2021/04/04 07:32:46;;;;;;;9.50;5.57;;;9.20;62.10;;;;;;5104479;28;27444;-59
2021/04/04 07:35:46;;;;;;;12.30;6.53;;;9.50;63.50;;;;;;5089308;28;27404;-59
2021/04/04 07:38:57;;;;;;;11.10;6.40;;;9.80;64.00;;;;;;5090192;28;27456;-59
2021/04/04 07:41:59;;;;;;;11.55;6.45;;;10.10;63.40;;;;;;5090642;28;27856;-59
2021/04/04 07:44:56;;;;;;;9.52;6.05;;;10.30;62.00;;;;;;5089213;28;27385;-59
2021/04/04 07:47:45;;;;;;;12.50;6.00;;;10.60;61.90;;;;;;5103526;28;27372;-59
2021/04/04 07:51:03;;;;;;;9.60;5.95;;;10.90;61.00;;;;;;5104281;28;27485;-60
2021/04/04 07:53:53;;;;;;;9.95;5.45;;;11.20;59.40;;;;;;5100809;28;28051;-60
2021/04/04 07:56:50;;;;;;;12.88;4.97;;;11.40;58.70;;;;;;5104408;28;27458;-60
2021/04/04 07:59:50;;;;;;;9.15;5.03;;;11.70;57.50;;;;;;5103887;28;26938;-60
2021/04/04 08:02:50;;;;;;;9.15;5.68;;;11.90;57.60;;;;;;5104100;28;27734;-59
2021/04/04 08:05:39;;;;;;;9.43;5.25;;;12.20;58.10;;;;;;5090154;28;27509;-60
2021/04/04 08:08:30;;;;;;;8.82;5.47;;;12.40;56.90;;;;;;5085776;28;27533;-59
2021/04/04 08:11:36;;;;;;;8.60;5.30;;;12.60;56.10;;;;;;5075217;28;27491;-60
2021/04/04 08:14:26;;;;;;;11.95;5.63;;;12.80;56.30;;;;;;5091451;28;27487;-60
2021/04/04 08:17:10;;;;;;;7.60;4.38;;;13.10;55.80;;;;;;5089347;28;27866;-60
2021/04/04 08:20:13;;;;;;;10.23;4.90;;;13.20;54.50;;;;;;5104090;28;27426;-59
2021/04/04 08:23:06;;;;;;;8.73;4.47;;;13.40;55.10;;;;;;5085621;28;27383;-60
2021/04/04 08:25:52;;;;;;;9.15;4.88;;;13.60;55.40;;;;;;5107326;28;27434;-60
2021/04/04 08:28:47;;;;;;;7.82;4.13;;;13.80;54.90;;;;;;5107268;28;27399;-60
2021/04/04 08:31:38;;;;;;;9.45;4.70;;;14.00;54.80;;;;;;5104176;28;27601;-60
2021/04/04 08:34:24;;;;;;;8.85;4.65;;;14.20;56.60;;;;;;5092452;28;27425;-57
2021/04/04 08:37:35;;;;;;;8.25;4.20;;;14.40;54.60;;;;;;5092041;28;27487;-57
2021/04/04 08:40:19;;;;;;;10.00;4.32;;;14.60;55.60;;;;;;5106254;28;27353;-57
2021/04/04 08:43:04;;;;;;;8.10;5.13;;;14.70;54.10;;;;;;5091998;28;27512;-57
2021/04/04 08:46:06;;;;;;;8.88;4.07;;;14.80;54.40;;;;;;5107430;28;27348;-57
2021/04/04 08:48:51;;;;;;;9.05;4.85;;;14.90;55.20;;;;;;5091995;28;27482;-57
2021/04/04 08:51:40;;;;;;;8.70;4.32;;;15.10;55.00;;;;;;5091949;28;27454;-57
2021/04/04 08:54:26;;;;;;;12.38;3.63;;;15.20;54.60;;;;;;5106997;28;27413;-57
2021/04/04 08:57:11;;;;;;;9.32;4.18;;;15.40;53.30;;;;;;5091757;28;27594;-57
2021/04/04 08:59:55;;;;;;;8.02;4.40;;;15.60;51.50;;;;;;5091702;28;27341;-57
2021/04/04 09:03:01;;;;;;;9.13;3.88;;;15.80;54.50;;;;;;5106554;28;27976;-57
2021/04/04 09:05:47;;;;;;;7.68;3.85;;;16.00;54.10;;;;;;5106780;28;27366;-57
2021/04/04 09:08:32;;;;;;;4.97;3.40;;;16.10;52.40;;;;;;5106953;28;27427;-57
2021/04/04 09:11:17;;;;;;;9.43;3.60;;;16.30;53.70;;;;;;5106437;28;27482;-57
2021/04/04 09:14:01;;;;;;;9.02;4.28;;;16.50;53.20;;;;;;5091240;28;27337;-57
2021/04/04 09:16:55;;;;;;;5.60;3.10;;;16.80;52.20;;;;;;5077161;28;27380;-60
2021/04/04 09:19:41;;;;;;;7.00;3.80;;;17.00;51.40;;;;;;5106442;28;26921;-60
2021/04/04 09:22:26;;;;;;;7.43;3.65;;;17.10;48.70;;;;;;5106481;28;27349;-60
2021/04/04 09:25:11;;;;;;;9.52;3.28;;;17.30;51.30;;;;;;5075678;28;27942;-60
2021/04/04 09:27:57;;;;;;;6.72;2.85;;;17.00;48.20;;;;;;5106363;28;27548;-60
2021/04/04 09:30:43;;;;;;;6.50;3.33;;;16.60;49.70;;;;;;5091411;28;27504;-57
2021/04/04 09:33:29;;;;;;;7.60;4.32;;;16.10;49.70;;;;;;5106217;28;27570;-57
2021/04/04 09:36:14;;;;;;;8.63;3.67;;;15.60;48.50;;;;;;5086507;28;27369;-57
2021/04/04 09:38:58;;;;;;;6.95;3.75;;;15.30;51.10;;;;;;5090646;28;27533;-56
2021/04/04 09:41:43;;;;;;;6.70;3.72;;;15.00;53.90;;;;;;5076993;28;27471;-57
2021/04/04 09:44:37;;;;;;;10.18;4.10;;;15.10;53.20;;;;;;5106017;28;27481;-57
2021/04/04 09:47:27;;;;;;;10.27;3.85;;;15.40;52.80;;;;;;5084152;28;27923;-57
2021/04/04 09:50:24;;;;;;;7.57;3.22;;;15.70;53.10;;;;;;5071515;28;27436;-57
2021/04/04 09:53:09;;;;;;;10.25;4.38;;;16.20;51.20;;;;;;5082689;28;27367;-57
2021/04/04 09:55:53;;;;;;;6.65;3.78;;;16.60;50.00;;;;;;5084785;28;27388;-57
2021/04/04 09:58:42;;;;;;;6.45;3.30;;;16.90;50.70;;;;;;5070299;28;27948;-57
2021/04/04 10:01:28;;;;;;;7.28;3.38;;;17.20;48.10;;;;;;5082453;28;27579;-57
2021/04/04 10:04:13;;;;;;;5.97;3.15;;;17.50;49.40;;;;;;5085731;28;27469;-57
2021/04/04 10:07:01;;;;;;;7.20;3.22;;;17.70;47.70;;;;;;5084960;28;27426;-58
2021/04/04 10:09:48;;;;;;;5.55;3.25;;;17.90;46.80;;;;;;5085596;28;27423;-58
2021/04/04 10:12:55;;;;;;;6.95;3.28;;;18.00;45.10;;;;;;5084711;28;27405;-58
2021/04/04 10:15:50;;;;;;;7.28;2.55;;;18.20;47.30;;;;;;5085285;28;27414;-59
2021/04/04 10:18:35;;;;;;;5.50;3.03;;;18.30;47.50;;;;;;5084989;28;27358;-58
2021/04/04 10:21:20;;;;;;;7.30;3.03;;;18.50;47.20;;;;;;5085176;28;27868;-59
2021/04/04 10:24:30;;;;;;;4.82;3.17;;;18.50;44.60;;;;;;5085098;28;27459;-59
2021/04/04 10:27:26;;;;;;;4.80;2.47;;;18.60;47.60;;;;;;5085137;28;27470;-59
2021/04/04 10:30:13;;;;;;;4.80;2.58;;;18.70;45.70;;;;;;5085062;28;27453;-58
2021/04/04 10:33:20;;;;;;;4.68;2.40;;;18.80;44.30;;;;;;5084961;28;27988;-59
2021/04/04 10:36:16;;;;;;;5.43;2.55;;;18.80;45.80;;;;;;5082004;28;27407;-60
2021/04/04 10:39:00;;;;;;;5.20;2.42;;;18.80;43.70;;;;;;5080695;28;27331;-59
2021/04/04 10:41:45;;;;;;;3.90;2.47;;;18.90;43.50;;;;;;5084417;28;27306;-59
2021/04/04 10:44:29;;;;;;;4.40;2.63;;;18.90;44.90;;;;;;5085158;28;27367;-60
2021/04/04 10:47:20;;;;;;;4.25;2.08;;;19.00;42.30;;;;;;5066134;28;27463;-59
2021/04/04 10:50:10;;;;;;;4.43;2.40;;;19.00;43.50;;;;;;5084848;28;27463;-60
2021/04/04 10:52:54;;;;;;;5.55;2.42;;;19.10;45.80;;;;;;5084746;28;27352;-59
2021/04/04 10:55:39;;;;;;;5.25;2.63;;;19.20;46.20;;;;;;5084075;28;27345;-60
2021/04/04 10:58:27;;;;;;;5.40;2.33;;;19.30;45.90;;;;;;5083957;28;27356;-60
2021/04/04 11:01:12;;;;;;;6.03;2.90;;;19.30;43.30;;;;;;5084881;28;27558;-60
2021/04/04 11:03:57;;;;;;;5.53;2.92;;;19.40;46.40;;;;;;5081263;28;27438;-60
2021/04/04 11:06:41;;;;;;;10.40;2.38;;;19.40;45.80;;;;;;5084721;28;27340;-60
2021/04/04 11:09:26;;;;;;;5.47;2.40;;;19.30;45.70;;;;;;5083838;28;27349;-60
2021/04/04 11:12:11;;;;;;;7.03;2.10;;;19.40;46.30;;;;;;5084484;28;27312;-60
2021/04/04 11:14:56;;;;;;;5.25;2.70;;;19.40;48.10;;;;;;5083276;28;27447;-60
2021/04/04 11:17:42;;;;;;;6.88;2.90;;;19.50;46.20;;;;;;5069369;28;27372;-60
2021/04/04 11:20:27;;;;;;;7.45;2.28;;;19.30;42.70;;;;;;5080262;28;27452;-60
2021/04/04 11:23:14;;;;;;;5.20;2.20;;;19.00;41.20;;;;;;5083569;28;27358;-60
2021/04/04 11:25:58;;;;;;;6.82;2.53;;;18.60;40.80;;;;;;5083424;28;27467;-60
2021/04/04 11:28:43;;;;;;;3.67;2.40;;;18.20;43.70;;;;;;5084362;28;27493;-60
2021/04/04 11:31:27;;;;;;;4.72;2.28;;;18.00;42.90;;;;;;5083367;28;27438;-60
2021/04/04 11:34:31;;;;;;;4.07;1.67;;;18.00;46.30;;;;;;5083616;28;27423;-60
2021/04/04 11:37:16;;;;;;;3.38;2.05;;;18.00;48.60;;;;;;5081127;28;27388;-60
2021/04/04 11:40:24;;;;;;;3.20;2.00;;;18.10;47.40;;;;;;5084210;28;27987;-60
2021/04/04 11:43:26;;;;;;;3.42;1.77;;;18.20;47.90;;;;;;5083190;28;27463;-60
2021/04/04 11:46:39;;;;;;;4.80;1.70;;;18.30;50.20;;;;;;5083991;28;27398;-60
2021/04/04 11:49:30;;;;;;;4.28;2.00;;;18.60;51.80;;;;;;5104606;28;27331;-59
2021/04/04 11:52:17;;;;;;;3.70;1.77;;;18.70;47.70;;;;;;5104240;28;27455;-60
2021/04/04 11:55:03;;;;;;;6.43;2.10;;;18.80;48.40;;;;;;5104521;28;27385;-60
2021/04/04 11:57:47;;;;;;;7.22;2.58;;;18.90;46.50;;;;;;5104214;27;27389;-60
2021/04/04 12:00:32;;;;;;;3.08;1.77;;;18.90;46.00;;;;;;5092416;28;27394;-60
2021/04/04 12:03:17;;;;;;;2.38;1.55;;;18.90;47.90;;;;;;5107746;28;27474;-60
2021/04/04 12:06:03;;;;;;;3.60;1.90;;;18.90;47.50;;;;;;5078507;28;27481;-60
2021/04/04 12:08:47;;;;;;;4.03;1.83;;;18.90;47.70;;;;;;5092992;28;27364;-60
2021/04/04 12:11:32;;;;;;;3.78;1.73;;;18.90;51.30;;;;;;5077209;28;27361;-60
2021/04/04 12:14:17;;;;;;;4.10;2.45;;;18.80;52.30;;;;;;5078661;28;27863;-60
2021/04/04 12:17:02;;;;;;;3.72;1.83;;;18.80;47.60;;;;;;5107845;28;27502;-60
2021/04/04 12:19:47;;;;;;;4.32;1.95;;;18.70;48.60;;;;;;5078340;28;26926;-60
2021/04/04 12:22:44;;;;;;;2.85;2.05;;;18.70;51.00;;;;;;5107704;28;27398;-60
2021/04/04 12:25:29;;;;;;;3.00;1.73;;;18.70;52.60;;;;;;5107791;28;27384;-60
2021/04/04 12:28:14;;;;;;;4.25;2.00;;;18.80;54.30;;;;;;5107685;28;27412;-60
2021/04/04 12:30:58;;;;;;;3.60;1.88;;;18.90;50.80;;;;;;5104422;28;26924;-60
2021/04/04 12:33:42;;;;;;;6.72;2.00;;;18.80;51.50;;;;;;5092273;28;27395;-60
2021/04/04 12:36:27;;;;;;;4.63;2.00;;;18.80;52.20;;;;;;5107448;28;27390;-60
2021/04/04 12:39:15;;;;;;;4.97;2.10;;;18.90;50.20;;;;;;5088447;28;27463;-60
2021/04/04 12:41:59;;;;;;;2.28;1.73;;;18.90;53.90;;;;;;5107208;28;26995;-60
2021/04/04 12:44:45;;;;;;;2.75;1.75;;;18.90;54.90;;;;;;5107468;28;27340;-60
2021/04/04 12:47:30;;;;;;;5.10;1.77;;;18.90;51.10;;;;;;5106777;28;27896;-60
2021/04/04 12:50:18;;;;;;;2.65;1.88;;;19.00;52.60;;;;;;5107033;28;27391;-60
2021/04/04 12:53:03;;;;;;;5.63;2.53;;;19.00;49.30;;;;;;5107300;28;27458;-60
2021/04/04 12:55:47;;;;;;;12.70;2.85;;;19.00;49.40;;;;;;5106971;28;27482;-60
2021/04/04 12:58:36;;;;;;;2.95;1.83;;;18.90;50.60;;;;;;5107032;28;27449;-60
2021/04/04 13:01:21;;;;;;;3.72;2.10;;;18.90;50.30;;;;;;5106851;28;27440;-60
2021/04/04 13:04:22;;;;;;;3.25;2.10;;;18.80;45.20;;;;;;5106665;28;27450;-60
2021/04/04 13:07:08;;;;;;;3.25;2.00;;;18.70;49.10;;;;;;5106877;28;27325;-59
2021/04/04 13:09:54;;;;;;;5.00;2.42;;;18.70;53.00;;;;;;5106678;27;27935;-60
2021/04/04 13:12:39;;;;;;;6.82;2.88;;;18.70;53.20;;;;;;5077570;28;27410;-60
2021/04/04 13:15:32;;;;;;;4.95;2.30;;;18.60;50.70;;;;;;5106679;28;26887;-60
2021/04/04 13:18:31;;;;;;;5.43;2.70;;;18.60;53.50;;;;;;5106776;28;27481;-59
2021/04/04 13:21:19;;;;;;;6.68;2.92;;;18.60;50.20;;;;;;5106493;28;27424;-59
2021/04/04 13:24:15;;;;;;;4.80;2.10;;;18.60;50.70;;;;;;5103180;28;27364;-60
2021/04/04 13:27:00;;;;;;;4.93;3.05;;;18.60;55.30;;;;;;5106423;28;27391;-59
2021/04/04 13:29:44;;;;;;;3.72;2.53;;;18.60;54.30;;;;;;5091585;28;27341;-60
2021/04/04 13:32:45;;;;;;;7.32;3.45;;;18.70;56.50;;;;;;5090711;28;27332;-59
2021/04/04 13:35:33;;;;;;;8.60;3.03;;;18.80;53.50;;;;;;5106501;28;27413;-60
2021/04/04 13:38:23;;;;;;;7.68;3.13;;;18.80;54.50;;;;;;5106230;28;27374;-60
2021/04/04 13:41:08;;;;;;;8.13;2.78;;;18.80;52.20;;;;;;5106485;28;27427;-60
2021/04/04 13:43:56;;;;;;;7.18;2.83;;;18.70;54.90;;;;;;5106427;28;27973;-60
2021/04/04 13:46:50;;;;;;;6.97;2.22;;;18.80;52.60;;;;;;5106014;28;27641;-60
2021/04/04 13:49:36;;;;;;;3.05;2.10;;;18.80;55.00;;;;;;5106419;28;27420;-60
2021/04/04 13:52:22;;;;;;;4.45;2.33;;;18.90;53.00;;;;;;5106281;28;27507;-60
2021/04/04 13:55:07;;;;;;;9.65;2.35;;;18.90;53.30;;;;;;5106261;28;27353;-60
2021/04/04 13:57:52;;;;;;;8.00;2.83;;;18.90;52.70;;;;;;5105843;27;27533;-60
2021/04/04 14:00:43;;;;;;;7.70;2.53;;;18.90;52.70;;;;;;5105588;28;27448;-60
2021/04/04 14:03:28;;;;;;;4.25;2.47;;;19.00;52.60;;;;;;5106110;28;27452;-60
2021/04/04 14:06:13;;;;;;;7.70;2.65;;;19.00;52.10;;;;;;5106010;28;27878;-60
2021/04/04 14:08:58;;;;;;;7.25;2.70;;;19.00;52.40;;;;;;5106016;28;27490;-60
2021/04/04 14:11:42;;;;;;;4.22;2.05;;;19.00;52.10;;;;;;5090768;28;27423;-60
2021/04/04 14:14:27;;;;;;;37.38;5.47;;;18.90;51.10;;;;;;5090545;28;27408;-60
2021/04/04 14:17:11;;;;;;;14.52;4.95;;;18.80;51.70;;;;;;5105569;28;27328;-60
2021/04/04 14:19:56;;;;;;;6.68;4.03;;;18.80;52.10;;;;;;5105520;28;27420;-60
2021/04/04 14:22:40;;;;;;;5.15;2.60;;;18.70;51.90;;;;;;5104734;27;27385;-60
2021/04/04 14:25:25;;;;;;;5.53;2.17;;;18.70;51.70;;;;;;5106039;28;27368;-60
2021/04/04 14:28:09;;;;;;;7.20;2.47;;;18.70;52.80;;;;;;5105321;28;27327;-60
2021/04/04 14:30:54;;;;;;;6.13;2.53;;;18.70;52.60;;;;;;5091270;28;27399;-59
2021/04/04 14:33:38;;;;;;;4.78;1.95;;;18.60;52.30;;;;;;5105344;28;27388;-59
2021/04/04 14:36:23;;;;;;;4.07;2.20;;;18.60;53.20;;;;;;5105324;28;27451;-59
2021/04/04 14:39:08;;;;;;;4.72;2.65;;;18.60;53.00;;;;;;5090153;28;27386;-59
2021/04/04 14:41:53;;;;;;;10.90;3.28;;;18.60;52.00;;;;;;5105842;28;27397;-60
2021/04/04 14:44:38;;;;;;;5.72;3.03;;;18.60;52.70;;;;;;5090170;28;27363;-59
2021/04/04 14:47:22;;;;;;;4.45;3.10;;;18.50;50.70;;;;;;5104654;28;27379;-59